sensor_id;sensor_type;location;lat;lon;timestamp;temperature;humidity
26378;DHT22;14078;50.974;6.786;2023-08-30T00:01:25;16.00;51.70
26378;DHT22;14078;50.974;6.786;2023-08-30T00:03:51;15.90;84.10
26378;DHT22;14078;50.974;6.786;2023-08-30T00:06:18;15.80;99.90
26378;DHT22;14078;50.974;6.786;2023-08-30T00:08:44;15.50;99.90
26378;DHT22;14078;50.974;6.786;2023-08-30T00:11:11;15.40;99.90
26378;DHT22;14078;50.974;6.786;2023-08-30T00:13:39;15.20;99.90
26378;DHT22;14078;50.974;6.786;2023-08-30T00:16:06;15.10;99.90
26378;DHT22;14078;50.974;6.786;2023-08-30T00:18:32;15.10;99.90
26378;DHT22;14078;50.974;6.786;2023-08-30T00:20:59;15.00;99.90
26378;DHT22;14078;50.974;6.786;2023-08-30T00:23:25;15.00;99.90
26378;DHT22;14078;50.974;6.786;2023-08-30T00:25:52;15.00;99.90
26378;DHT22;14078;50.974;6.786;2023-08-30T00:28:18;15.00;99.90
26378;DHT22;14078;50.974;6.786;2023-08-30T00:30:46;15.00;99.90
26378;DHT22;14078;50.974;6.786;2023-08-30T00:33:13;15.00;99.90
26378;DHT22;14078;50.974;6.786;2023-08-30T00:35:39;15.00;99.90
26378;DHT22;14078;50.974;6.786;2023-08-30T00:38:06;15.00;99.90
26378;DHT22;14078;50.974;6.786;2023-08-30T00:40:37;15.00;99.90
26378;DHT22;14078;50.974;6.786;2023-08-30T00:43:04;15.00;99.90
26378;DHT22;14078;50.974;6.786;2023-08-30T00:45:30;15.10;99.90
26378;DHT22;14078;50.974;6.786;2023-08-30T00:47:58;15.30;99.90
26378;DHT22;14078;50.974;6.786;2023-08-30T00:50:24;15.30;99.90
26378;DHT22;14078;50.974;6.786;2023-08-30T00:52:51;15.30;99.90
26378;DHT22;14078;50.974;6.786;2023-08-30T00:55:17;15.30;99.90
26378;DHT22;14078;50.974;6.786;2023-08-30T00:57:44;15.30;99.90
26378;DHT22;14078;50.974;6.786;2023-08-30T01:00:11;15.30;99.90
26378;DHT22;14078;50.974;6.786;2023-08-30T01:05:16;15.20;99.90
26378;DHT22;14078;50.974;6.786;2023-08-30T01:07:43;15.20;99.90
26378;DHT22;14078;50.974;6.786;2023-08-30T01:10:10;15.10;99.90
26378;DHT22;14078;50.974;6.786;2023-08-30T01:12:37;15.10;99.90
26378;DHT22;14078;50.974;6.786;2023-08-30T01:15:06;15.00;99.90
26378;DHT22;14078;50.974;6.786;2023-08-30T01:17:35;15.10;99.90
26378;DHT22;14078;50.974;6.786;2023-08-30T01:20:03;15.10;99.90
26378;DHT22;14078;50.974;6.786;2023-08-30T01:22:40;15.10;99.90
26378;DHT22;14078;50.974;6.786;2023-08-30T01:25:12;15.00;99.90
26378;DHT22;14078;50.974;6.786;2023-08-30T01:27:43;15.00;99.90
26378;DHT22;14078;50.974;6.786;2023-08-30T01:30:12;14.90;99.90
26378;DHT22;14078;50.974;6.786;2023-08-30T01:32:39;14.90;99.90
26378;DHT22;14078;50.974;6.786;2023-08-30T01:35:06;14.90;99.90
26378;DHT22;14078;50.974;6.786;2023-08-30T01:37:33;15.00;99.90
26378;DHT22;14078;50.974;6.786;2023-08-30T01:40:01;15.00;99.90
26378;DHT22;14078;50.974;6.786;2023-08-30T01:42:29;14.90;99.90
26378;DHT22;14078;50.974;6.786;2023-08-30T01:44:57;15.00;99.90
26378;DHT22;14078;50.974;6.786;2023-08-30T01:47:25;15.10;99.90
26378;DHT22;14078;50.974;6.786;2023-08-30T01:49:52;15.20;99.90
26378;DHT22;14078;50.974;6.786;2023-08-30T01:52:19;15.20;99.90
26378;DHT22;14078;50.974;6.786;2023-08-30T01:54:46;15.10;99.90
26378;DHT22;14078;50.974;6.786;2023-08-30T01:57:13;14.90;99.90
26378;DHT22;14078;50.974;6.786;2023-08-30T01:59:40;15.00;99.90
26378;DHT22;14078;50.974;6.786;2023-08-30T02:02:08;15.10;99.90
26378;DHT22;14078;50.974;6.786;2023-08-30T02:04:34;15.20;96.70
26378;DHT22;14078;50.974;6.786;2023-08-30T02:07:02;15.10;99.30
26378;DHT22;14078;50.974;6.786;2023-08-30T02:09:29;14.90;98.70
26378;DHT22;14078;50.974;6.786;2023-08-30T02:12:02;14.80;99.90
26378;DHT22;14078;50.974;6.786;2023-08-30T02:14:30;14.60;99.90
26378;DHT22;14078;50.974;6.786;2023-08-30T02:16:58;14.60;99.90
26378;DHT22;14078;50.974;6.786;2023-08-30T02:19:26;14.50;99.90
26378;DHT22;14078;50.974;6.786;2023-08-30T02:21:53;14.60;99.90
26378;DHT22;14078;50.974;6.786;2023-08-30T02:24:19;14.70;99.90
26378;DHT22;14078;50.974;6.786;2023-08-30T02:26:46;14.80;99.90
26378;DHT22;14078;50.974;6.786;2023-08-30T02:29:12;14.70;99.90
26378;DHT22;14078;50.974;6.786;2023-08-30T02:31:40;14.60;99.90
26378;DHT22;14078;50.974;6.786;2023-08-30T02:34:06;14.60;99.90
26378;DHT22;14078;50.974;6.786;2023-08-30T02:36:34;14.60;99.90
26378;DHT22;14078;50.974;6.786;2023-08-30T02:39:01;14.80;99.90
26378;DHT22;14078;50.974;6.786;2023-08-30T02:41:28;14.70;99.90
26378;DHT22;14078;50.974;6.786;2023-08-30T02:43:55;14.50;99.90
26378;DHT22;14078;50.974;6.786;2023-08-30T02:46:21;14.50;99.90
26378;DHT22;14078;50.974;6.786;2023-08-30T02:48:48;14.40;99.90
26378;DHT22;14078;50.974;6.786;2023-08-30T02:51:14;14.50;99.90
26378;DHT22;14078;50.974;6.786;2023-08-30T02:53:43;14.40;99.90
26378;DHT22;14078;50.974;6.786;2023-08-30T02:56:10;14.30;99.90
26378;DHT22;14078;50.974;6.786;2023-08-30T02:58:36;14.20;99.90
26378;DHT22;14078;50.974;6.786;2023-08-30T03:01:03;14.10;99.90
26378;DHT22;14078;50.974;6.786;2023-08-30T03:03:29;14.00;99.90
26378;DHT22;14078;50.974;6.786;2023-08-30T03:05:56;13.90;99.90
26378;DHT22;14078;50.974;6.786;2023-08-30T03:08:22;13.90;99.90
26378;DHT22;14078;50.974;6.786;2023-08-30T03:10:50;13.80;99.90
26378;DHT22;14078;50.974;6.786;2023-08-30T03:13:17;13.80;99.90
26378;DHT22;14078;50.974;6.786;2023-08-30T03:15:43;13.70;99.90
26378;DHT22;14078;50.974;6.786;2023-08-30T03:18:10;13.80;99.90
26378;DHT22;14078;50.974;6.786;2023-08-30T03:20:36;13.80;99.90
26378;DHT22;14078;50.974;6.786;2023-08-30T03:23:03;13.70;99.90
26378;DHT22;14078;50.974;6.786;2023-08-30T03:25:29;13.70;99.90
26378;DHT22;14078;50.974;6.786;2023-08-30T03:27:57;13.60;99.90
26378;DHT22;14078;50.974;6.786;2023-08-30T03:30:24;13.50;99.90
26378;DHT22;14078;50.974;6.786;2023-08-30T03:32:50;13.50;99.90
26378;DHT22;14078;50.974;6.786;2023-08-30T03:35:17;13.50;99.90
26378;DHT22;14078;50.974;6.786;2023-08-30T03:37:45;13.50;99.90
26378;DHT22;14078;50.974;6.786;2023-08-30T03:40:12;13.40;99.90
26378;DHT22;14078;50.974;6.786;2023-08-30T03:42:38;13.50;99.90
26378;DHT22;14078;50.974;6.786;2023-08-30T03:45:07;13.40;99.90
26378;DHT22;14078;50.974;6.786;2023-08-30T03:47:34;13.40;99.90
26378;DHT22;14078;50.974;6.786;2023-08-30T03:50:00;13.30;99.90
26378;DHT22;14078;50.974;6.786;2023-08-30T03:52:27;13.30;99.90
26378;DHT22;14078;50.974;6.786;2023-08-30T03:54:54;13.30;99.90
26378;DHT22;14078;50.974;6.786;2023-08-30T03:57:20;13.30;99.90
26378;DHT22;14078;50.974;6.786;2023-08-30T03:59:47;13.30;99.90
26378;DHT22;14078;50.974;6.786;2023-08-30T04:02:15;13.20;99.90
26378;DHT22;14078;50.974;6.786;2023-08-30T04:04:41;13.20;99.90
26378;DHT22;14078;50.974;6.786;2023-08-30T04:07:08;13.20;99.90
26378;DHT22;14078;50.974;6.786;2023-08-30T04:09:34;13.20;99.90
26378;DHT22;14078;50.974;6.786;2023-08-30T04:12:01;13.20;99.90
26378;DHT22;14078;50.974;6.786;2023-08-30T04:14:30;13.20;99.90
26378;DHT22;14078;50.974;6.786;2023-08-30T04:16:56;13.10;99.90
26378;DHT22;14078;50.974;6.786;2023-08-30T04:19:24;13.00;99.90
26378;DHT22;14078;50.974;6.786;2023-08-30T04:21:50;13.00;99.90
26378;DHT22;14078;50.974;6.786;2023-08-30T04:24:17;13.00;99.90
26378;DHT22;14078;50.974;6.786;2023-08-30T04:26:43;13.00;99.90
26378;DHT22;14078;50.974;6.786;2023-08-30T04:29:10;13.00;99.90
26378;DHT22;14078;50.974;6.786;2023-08-30T04:31:36;13.00;99.90
26378;DHT22;14078;50.974;6.786;2023-08-30T04:34:03;13.00;99.90
26378;DHT22;14078;50.974;6.786;2023-08-30T04:36:31;13.00;99.90
26378;DHT22;14078;50.974;6.786;2023-08-30T04:38:57;13.00;99.90
26378;DHT22;14078;50.974;6.786;2023-08-30T04:41:24;13.00;99.90
26378;DHT22;14078;50.974;6.786;2023-08-30T04:43:50;13.00;99.90
26378;DHT22;14078;50.974;6.786;2023-08-30T04:46:17;13.00;99.90
26378;DHT22;14078;50.974;6.786;2023-08-30T04:48:43;13.10;99.90
26378;DHT22;14078;50.974;6.786;2023-08-30T04:51:10;13.20;99.90
26378;DHT22;14078;50.974;6.786;2023-08-30T04:53:38;13.30;99.90
26378;DHT22;14078;50.974;6.786;2023-08-30T04:56:10;13.20;99.90
26378;DHT22;14078;50.974;6.786;2023-08-30T04:58:36;13.20;99.90
26378;DHT22;14078;50.974;6.786;2023-08-30T05:01:03;13.30;99.90
26378;DHT22;14078;50.974;6.786;2023-08-30T05:03:30;13.20;99.90
26378;DHT22;14078;50.974;6.786;2023-08-30T05:05:56;13.10;99.90
26378;DHT22;14078;50.974;6.786;2023-08-30T05:08:23;13.00;99.90
26378;DHT22;14078;50.974;6.786;2023-08-30T05:10:53;13.00;99.90
26378;DHT22;14078;50.974;6.786;2023-08-30T05:13:19;13.10;99.90
26378;DHT22;14078;50.974;6.786;2023-08-30T05:15:46;13.00;99.90
26378;DHT22;14078;50.974;6.786;2023-08-30T05:18:12;13.10;99.90
26378;DHT22;14078;50.974;6.786;2023-08-30T05:20:39;13.20;99.90
26378;DHT22;14078;50.974;6.786;2023-08-30T05:23:05;13.00;99.90
26378;DHT22;14078;50.974;6.786;2023-08-30T05:25:32;13.10;99.90
26378;DHT22;14078;50.974;6.786;2023-08-30T05:28:00;13.30;99.90
26378;DHT22;14078;50.974;6.786;2023-08-30T05:30:26;13.20;99.90
26378;DHT22;14078;50.974;6.786;2023-08-30T05:32:53;13.20;99.90
26378;DHT22;14078;50.974;6.786;2023-08-30T05:35:19;13.10;99.90
26378;DHT22;14078;50.974;6.786;2023-08-30T05:37:46;13.00;99.90
26378;DHT22;14078;50.974;6.786;2023-08-30T05:40:12;13.10;99.90
26378;DHT22;14078;50.974;6.786;2023-08-30T05:42:40;13.10;99.90
26378;DHT22;14078;50.974;6.786;2023-08-30T05:45:09;13.20;99.90
26378;DHT22;14078;50.974;6.786;2023-08-30T05:47:35;13.20;99.90
26378;DHT22;14078;50.974;6.786;2023-08-30T05:50:02;13.20;99.90
26378;DHT22;14078;50.974;6.786;2023-08-30T05:52:28;13.40;99.90
26378;DHT22;14078;50.974;6.786;2023-08-30T05:54:55;13.40;99.90
26378;DHT22;14078;50.974;6.786;2023-08-30T05:57:21;13.50;99.90
26378;DHT22;14078;50.974;6.786;2023-08-30T05:59:50;13.50;99.90
26378;DHT22;14078;50.974;6.786;2023-08-30T06:02:17;13.50;99.90
26378;DHT22;14078;50.974;6.786;2023-08-30T06:04:44;13.60;99.90
26378;DHT22;14078;50.974;6.786;2023-08-30T06:07:10;13.60;99.90
26378;DHT22;14078;50.974;6.786;2023-08-30T06:09:37;13.70;99.90
26378;DHT22;14078;50.974;6.786;2023-08-30T06:12:04;13.80;99.90
26378;DHT22;14078;50.974;6.786;2023-08-30T06:14:31;13.90;99.90
26378;DHT22;14078;50.974;6.786;2023-08-30T06:16:57;14.00;99.90
26378;DHT22;14078;50.974;6.786;2023-08-30T06:19:25;14.10;99.90
26378;DHT22;14078;50.974;6.786;2023-08-30T06:21:51;14.20;99.90
26378;DHT22;14078;50.974;6.786;2023-08-30T06:24:18;14.30;99.90
26378;DHT22;14078;50.974;6.786;2023-08-30T06:26:44;14.40;99.90
26378;DHT22;14078;50.974;6.786;2023-08-30T06:29:11;14.50;99.90
26378;DHT22;14078;50.974;6.786;2023-08-30T06:31:37;14.60;99.90
26378;DHT22;14078;50.974;6.786;2023-08-30T06:34:05;14.70;99.90
26378;DHT22;14078;50.974;6.786;2023-08-30T06:36:33;14.70;99.90
26378;DHT22;14078;50.974;6.786;2023-08-30T06:38:59;14.80;99.90
26378;DHT22;14078;50.974;6.786;2023-08-30T06:41:26;14.90;99.90
26378;DHT22;14078;50.974;6.786;2023-08-30T06:43:52;15.00;99.90
26378;DHT22;14078;50.974;6.786;2023-08-30T06:46:19;15.10;99.90
26378;DHT22;14078;50.974;6.786;2023-08-30T06:48:45;15.10;99.90
26378;DHT22;14078;50.974;6.786;2023-08-30T06:51:12;15.10;99.90
26378;DHT22;14078;50.974;6.786;2023-08-30T06:53:39;15.20;99.90
26378;DHT22;14078;50.974;6.786;2023-08-30T06:56:06;15.30;99.90
26378;DHT22;14078;50.974;6.786;2023-08-30T06:58:32;15.30;99.90
26378;DHT22;14078;50.974;6.786;2023-08-30T07:00:59;15.30;99.90
26378;DHT22;14078;50.974;6.786;2023-08-30T07:03:28;15.40;99.90
26378;DHT22;14078;50.974;6.786;2023-08-30T07:05:55;15.40;99.90
26378;DHT22;14078;50.974;6.786;2023-08-30T07:08:21;15.40;99.90
26378;DHT22;14078;50.974;6.786;2023-08-30T07:10:49;15.50;99.90
26378;DHT22;14078;50.974;6.786;2023-08-30T07:13:17;15.60;99.90
26378;DHT22;14078;50.974;6.786;2023-08-30T07:15:43;15.70;99.90
26378;DHT22;14078;50.974;6.786;2023-08-30T07:18:10;15.90;99.90
26378;DHT22;14078;50.974;6.786;2023-08-30T07:20:38;15.90;99.90
26378;DHT22;14078;50.974;6.786;2023-08-30T07:23:05;16.00;99.90
26378;DHT22;14078;50.974;6.786;2023-08-30T07:25:31;16.00;99.90
26378;DHT22;14078;50.974;6.786;2023-08-30T07:28:00;16.30;91.00
26378;DHT22;14078;50.974;6.786;2023-08-30T07:30:26;16.30;92.00
26378;DHT22;14078;50.974;6.786;2023-08-30T07:32:53;16.40;74.50
26378;DHT22;14078;50.974;6.786;2023-08-30T07:35:20;16.50;74.20
26378;DHT22;14078;50.974;6.786;2023-08-30T07:37:46;16.60;48.20
26378;DHT22;14078;50.974;6.786;2023-08-30T07:40:12;16.70;48.10
26378;DHT22;14078;50.974;6.786;2023-08-30T07:42:39;16.60;63.90
26378;DHT22;14078;50.974;6.786;2023-08-30T07:45:08;16.80;18.20
26378;DHT22;14078;50.974;6.786;2023-08-30T07:47:35;16.90;99.90
26378;DHT22;14078;50.974;6.786;2023-08-30T07:50:01;17.10;99.90
26378;DHT22;14078;50.974;6.786;2023-08-30T07:52:28;17.20;97.80
26378;DHT22;14078;50.974;6.786;2023-08-30T07:54:54;17.30;39.90
26378;DHT22;14078;50.974;6.786;2023-08-30T07:57:20;17.40;99.90
26378;DHT22;14078;50.974;6.786;2023-08-30T07:59:47;17.40;1.00
26378;DHT22;14078;50.974;6.786;2023-08-30T08:02:15;17.50;99.90
26378;DHT22;14078;50.974;6.786;2023-08-30T08:04:41;17.60;99.90
26378;DHT22;14078;50.974;6.786;2023-08-30T08:07:08;17.70;1.00
26378;DHT22;14078;50.974;6.786;2023-08-30T08:09:34;17.80;1.00
26378;DHT22;14078;50.974;6.786;2023-08-30T08:12:02;17.80;99.90
26378;DHT22;14078;50.974;6.786;2023-08-30T08:14:29;17.90;1.00
26378;DHT22;14078;50.974;6.786;2023-08-30T08:16:56;17.90;1.00
26378;DHT22;14078;50.974;6.786;2023-08-30T08:19:24;17.90;99.90
26378;DHT22;14078;50.974;6.786;2023-08-30T08:21:50;17.90;1.00
26378;DHT22;14078;50.974;6.786;2023-08-30T08:24:18;17.90;1.00
26378;DHT22;14078;50.974;6.786;2023-08-30T08:26:45;18.00;99.90
26378;DHT22;14078;50.974;6.786;2023-08-30T08:29:12;18.10;1.00
26378;DHT22;14078;50.974;6.786;2023-08-30T08:31:39;18.20;99.90
26378;DHT22;14078;50.974;6.786;2023-08-30T08:34:06;18.30;1.00
26378;DHT22;14078;50.974;6.786;2023-08-30T08:36:34;18.40;99.90
26378;DHT22;14078;50.974;6.786;2023-08-30T08:39:00;18.60;1.00
26378;DHT22;14078;50.974;6.786;2023-08-30T08:41:31;18.70;99.90
26378;DHT22;14078;50.974;6.786;2023-08-30T08:44:00;18.70;99.90
26378;DHT22;14078;50.974;6.786;2023-08-30T08:46:27;18.80;99.90
26378;DHT22;14078;50.974;6.786;2023-08-30T08:48:56;19.00;99.90
26378;DHT22;14078;50.974;6.786;2023-08-30T08:51:24;19.20;99.90
26378;DHT22;14078;50.974;6.786;2023-08-30T08:53:53;19.40;99.30
26378;DHT22;14078;50.974;6.786;2023-08-30T08:56:21;19.60;75.60
26378;DHT22;14078;50.974;6.786;2023-08-30T08:58:48;19.60;3.00
26378;DHT22;14078;50.974;6.786;2023-08-30T09:01:14;19.60;1.00
26378;DHT22;14078;50.974;6.786;2023-08-30T09:03:41;19.50;1.60
26378;DHT22;14078;50.974;6.786;2023-08-30T09:06:07;19.40;1.00
26378;DHT22;14078;50.974;6.786;2023-08-30T09:08:34;19.40;1.00
26378;DHT22;14078;50.974;6.786;2023-08-30T09:11:02;19.20;9.60
26378;DHT22;14078;50.974;6.786;2023-08-30T09:13:28;19.10;10.10
26378;DHT22;14078;50.974;6.786;2023-08-30T09:15:56;19.20;11.60
26378;DHT22;14078;50.974;6.786;2023-08-30T09:18:22;19.20;36.00
26378;DHT22;14078;50.974;6.786;2023-08-30T09:20:52;19.40;38.10
26378;DHT22;14078;50.974;6.786;2023-08-30T09:23:19;19.50;88.30
26378;DHT22;14078;50.974;6.786;2023-08-30T09:25:46;19.60;12.60
26378;DHT22;14078;50.974;6.786;2023-08-30T09:28:14;19.60;54.60
26378;DHT22;14078;50.974;6.786;2023-08-30T09:30:41;19.60;10.00
26378;DHT22;14078;50.974;6.786;2023-08-30T09:33:07;19.50;15.50
26378;DHT22;14078;50.974;6.786;2023-08-30T09:35:39;19.40;18.30
26378;DHT22;14078;50.974;6.786;2023-08-30T09:38:06;19.30;5.50
26378;DHT22;14078;50.974;6.786;2023-08-30T09:40:32;19.10;13.10
26378;DHT22;14078;50.974;6.786;2023-08-30T09:42:59;19.10;40.30
26378;DHT22;14078;50.974;6.786;2023-08-30T09:45:29;19.20;74.60
26378;DHT22;14078;50.974;6.786;2023-08-30T09:47:56;19.20;97.70
26378;DHT22;14078;50.974;6.786;2023-08-30T09:50:22;19.10;99.90
26378;DHT22;14078;50.974;6.786;2023-08-30T09:52:49;19.10;99.90
26378;DHT22;14078;50.974;6.786;2023-08-30T09:55:16;19.00;99.90
26378;DHT22;14078;50.974;6.786;2023-08-30T09:57:44;18.90;99.90
26378;DHT22;14078;50.974;6.786;2023-08-30T10:00:11;19.00;99.90
26378;DHT22;14078;50.974;6.786;2023-08-30T10:02:40;18.90;99.90
26378;DHT22;14078;50.974;6.786;2023-08-30T10:05:09;18.80;99.90
26378;DHT22;14078;50.974;6.786;2023-08-30T10:07:36;18.90;99.90
26378;DHT22;14078;50.974;6.786;2023-08-30T10:10:03;18.90;99.90
26378;DHT22;14078;50.974;6.786;2023-08-30T10:12:31;18.90;99.90
26378;DHT22;14078;50.974;6.786;2023-08-30T10:14:58;18.90;99.90
26378;DHT22;14078;50.974;6.786;2023-08-30T10:17:26;19.00;99.90
26378;DHT22;14078;50.974;6.786;2023-08-30T10:19:55;18.90;99.90
26378;DHT22;14078;50.974;6.786;2023-08-30T10:22:22;18.90;99.90
26378;DHT22;14078;50.974;6.786;2023-08-30T10:24:50;18.90;99.90
26378;DHT22;14078;50.974;6.786;2023-08-30T10:27:17;18.80;99.90
26378;DHT22;14078;50.974;6.786;2023-08-30T10:29:44;18.80;99.90
26378;DHT22;14078;50.974;6.786;2023-08-30T10:32:11;18.80;99.90
26378;DHT22;14078;50.974;6.786;2023-08-30T10:34:38;18.80;1.00
26378;DHT22;14078;50.974;6.786;2023-08-30T10:37:07;18.80;1.00
26378;DHT22;14078;50.974;6.786;2023-08-30T10:39:35;18.70;1.00
26378;DHT22;14078;50.974;6.786;2023-08-30T10:42:06;18.70;1.00
26378;DHT22;14078;50.974;6.786;2023-08-30T10:44:33;18.60;2.60
26378;DHT22;14078;50.974;6.786;2023-08-30T10:47:01;18.60;99.90
26378;DHT22;14078;50.974;6.786;2023-08-30T10:49:28;18.60;1.00
26378;DHT22;14078;50.974;6.786;2023-08-30T10:51:55;18.50;99.90
26378;DHT22;14078;50.974;6.786;2023-08-30T10:54:23;18.20;1.00
26378;DHT22;14078;50.974;6.786;2023-08-30T10:56:54;17.80;1.00
26378;DHT22;14078;50.974;6.786;2023-08-30T10:59:21;17.30;79.70
26378;DHT22;14078;50.974;6.786;2023-08-30T11:01:49;16.90;99.90
26378;DHT22;14078;50.974;6.786;2023-08-30T11:04:16;16.60;99.90
26378;DHT22;14078;50.974;6.786;2023-08-30T11:06:43;16.30;99.90
26378;DHT22;14078;50.974;6.786;2023-08-30T11:09:12;16.10;99.90
26378;DHT22;14078;50.974;6.786;2023-08-30T11:11:40;16.00;99.90
26378;DHT22;14078;50.974;6.786;2023-08-30T11:14:07;15.80;99.90
26378;DHT22;14078;50.974;6.786;2023-08-30T11:16:33;15.70;99.90
26378;DHT22;14078;50.974;6.786;2023-08-30T11:19:00;15.80;99.90
26378;DHT22;14078;50.974;6.786;2023-08-30T11:21:28;15.70;99.90
26378;DHT22;14078;50.974;6.786;2023-08-30T11:23:55;15.70;99.90
26378;DHT22;14078;50.974;6.786;2023-08-30T11:26:21;15.70;99.90
26378;DHT22;14078;50.974;6.786;2023-08-30T11:28:49;15.70;99.90
26378;DHT22;14078;50.974;6.786;2023-08-30T11:31:18;15.70;99.90
26378;DHT22;14078;50.974;6.786;2023-08-30T11:33:51;15.70;99.90
26378;DHT22;14078;50.974;6.786;2023-08-30T11:36:18;15.80;99.90
26378;DHT22;14078;50.974;6.786;2023-08-30T11:38:46;15.90;99.90
26378;DHT22;14078;50.974;6.786;2023-08-30T11:41:13;16.00;99.90
26378;DHT22;14078;50.974;6.786;2023-08-30T11:43:39;16.10;99.90
26378;DHT22;14078;50.974;6.786;2023-08-30T11:46:09;16.00;99.90
26378;DHT22;14078;50.974;6.786;2023-08-30T11:48:37;16.00;99.90
26378;DHT22;14078;50.974;6.786;2023-08-30T11:51:04;16.00;99.90
26378;DHT22;14078;50.974;6.786;2023-08-30T11:53:31;15.90;99.90
26378;DHT22;14078;50.974;6.786;2023-08-30T11:55:57;15.90;99.90
26378;DHT22;14078;50.974;6.786;2023-08-30T11:58:24;15.90;99.90
26378;DHT22;14078;50.974;6.786;2023-08-30T12:00:51;15.90;99.90
26378;DHT22;14078;50.974;6.786;2023-08-30T12:03:20;15.90;99.90
26378;DHT22;14078;50.974;6.786;2023-08-30T12:05:47;15.90;99.90
26378;DHT22;14078;50.974;6.786;2023-08-30T12:08:18;16.00;99.90
26378;DHT22;14078;50.974;6.786;2023-08-30T12:10:44;16.10;99.90
26378;DHT22;14078;50.974;6.786;2023-08-30T12:13:19;16.10;99.90
26378;DHT22;14078;50.974;6.786;2023-08-30T12:15:45;16.10;99.90
26378;DHT22;14078;50.974;6.786;2023-08-30T12:18:12;16.10;99.90
26378;DHT22;14078;50.974;6.786;2023-08-30T12:20:40;16.10;99.90
26378;DHT22;14078;50.974;6.786;2023-08-30T12:23:20;16.10;99.90
26378;DHT22;14078;50.974;6.786;2023-08-30T12:25:56;16.10;99.90
26378;DHT22;14078;50.974;6.786;2023-08-30T12:28:22;16.10;99.90
26378;DHT22;14078;50.974;6.786;2023-08-30T12:30:49;16.00;99.90
26378;DHT22;14078;50.974;6.786;2023-08-30T12:33:16;16.00;99.90
26378;DHT22;14078;50.974;6.786;2023-08-30T12:35:44;15.90;99.90
26378;DHT22;14078;50.974;6.786;2023-08-30T12:38:11;15.90;99.90
26378;DHT22;14078;50.974;6.786;2023-08-30T12:40:42;15.90;99.90
26378;DHT22;14078;50.974;6.786;2023-08-30T12:43:09;15.80;99.90
26378;DHT22;14078;50.974;6.786;2023-08-30T12:45:36;15.80;99.90
26378;DHT22;14078;50.974;6.786;2023-08-30T12:48:03;15.70;99.90
26378;DHT22;14078;50.974;6.786;2023-08-30T12:50:29;15.80;99.90
26378;DHT22;14078;50.974;6.786;2023-08-30T12:52:57;15.80;99.90
26378;DHT22;14078;50.974;6.786;2023-08-30T12:55:23;15.70;99.90
26378;DHT22;14078;50.974;6.786;2023-08-30T12:57:50;15.70;99.90
26378;DHT22;14078;50.974;6.786;2023-08-30T13:00:17;15.70;99.90
26378;DHT22;14078;50.974;6.786;2023-08-30T13:02:43;15.60;99.90
26378;DHT22;14078;50.974;6.786;2023-08-30T13:05:10;15.70;99.90
26378;DHT22;14078;50.974;6.786;2023-08-30T13:07:36;15.70;99.90
26378;DHT22;14078;50.974;6.786;2023-08-30T13:10:06;15.70;99.90
26378;DHT22;14078;50.974;6.786;2023-08-30T13:12:33;15.70;99.90
26378;DHT22;14078;50.974;6.786;2023-08-30T13:14:59;15.70;99.90
26378;DHT22;14078;50.974;6.786;2023-08-30T13:17:26;15.60;99.90
26378;DHT22;14078;50.974;6.786;2023-08-30T13:19:52;15.60;99.90
26378;DHT22;14078;50.974;6.786;2023-08-30T13:22:19;15.60;99.90
26378;DHT22;14078;50.974;6.786;2023-08-30T13:24:45;15.50;99.90
26378;DHT22;14078;50.974;6.786;2023-08-30T13:27:14;15.60;99.90
26378;DHT22;14078;50.974;6.786;2023-08-30T13:29:40;15.50;99.90
26378;DHT22;14078;50.974;6.786;2023-08-30T13:32:07;15.60;99.90
26378;DHT22;14078;50.974;6.786;2023-08-30T13:34:33;15.60;99.90
26378;DHT22;14078;50.974;6.786;2023-08-30T13:37:00;15.50;99.90
26378;DHT22;14078;50.974;6.786;2023-08-30T13:39:26;15.50;99.90
26378;DHT22;14078;50.974;6.786;2023-08-30T13:41:53;15.60;99.90
26378;DHT22;14078;50.974;6.786;2023-08-30T13:44:21;15.50;99.90
26378;DHT22;14078;50.974;6.786;2023-08-30T13:46:49;15.50;99.90
26378;DHT22;14078;50.974;6.786;2023-08-30T13:49:16;15.50;99.90
26378;DHT22;14078;50.974;6.786;2023-08-30T13:51:43;15.50;99.90
26378;DHT22;14078;50.974;6.786;2023-08-30T13:54:10;15.60;99.90
26378;DHT22;14078;50.974;6.786;2023-08-30T13:56:36;15.70;99.90
26378;DHT22;14078;50.974;6.786;2023-08-30T13:59:04;15.70;99.90
26378;DHT22;14078;50.974;6.786;2023-08-30T14:01:32;15.60;99.90
26378;DHT22;14078;50.974;6.786;2023-08-30T14:04:00;15.60;99.90
26378;DHT22;14078;50.974;6.786;2023-08-30T14:06:27;15.60;99.90
26378;DHT22;14078;50.974;6.786;2023-08-30T14:08:53;15.70;99.90
26378;DHT22;14078;50.974;6.786;2023-08-30T14:11:20;15.60;99.90
26378;DHT22;14078;50.974;6.786;2023-08-30T14:13:46;15.60;99.90
26378;DHT22;14078;50.974;6.786;2023-08-30T14:16:13;15.60;99.90
26378;DHT22;14078;50.974;6.786;2023-08-30T14:18:41;15.50;99.90
26378;DHT22;14078;50.974;6.786;2023-08-30T14:21:09;15.50;99.90
26378;DHT22;14078;50.974;6.786;2023-08-30T14:23:35;15.50;99.90
26378;DHT22;14078;50.974;6.786;2023-08-30T14:26:02;15.40;99.90
26378;DHT22;14078;50.974;6.786;2023-08-30T14:28:34;15.40;99.90
26378;DHT22;14078;50.974;6.786;2023-08-30T14:31:00;15.30;99.90
26378;DHT22;14078;50.974;6.786;2023-08-30T14:33:27;15.30;99.90
26378;DHT22;14078;50.974;6.786;2023-08-30T14:35:55;15.30;99.90
26378;DHT22;14078;50.974;6.786;2023-08-30T14:38:22;15.20;99.90
26378;DHT22;14078;50.974;6.786;2023-08-30T14:40:56;15.00;99.90
26378;DHT22;14078;50.974;6.786;2023-08-30T14:43:23;15.00;99.90
26378;DHT22;14078;50.974;6.786;2023-08-30T14:45:49;14.90;99.90
26378;DHT22;14078;50.974;6.786;2023-08-30T14:48:16;14.90;99.90
26378;DHT22;14078;50.974;6.786;2023-08-30T14:50:43;14.90;99.90
26378;DHT22;14078;50.974;6.786;2023-08-30T14:53:11;14.90;99.90
26378;DHT22;14078;50.974;6.786;2023-08-30T14:55:37;14.80;99.90
26378;DHT22;14078;50.974;6.786;2023-08-30T14:58:04;14.80;99.90
26378;DHT22;14078;50.974;6.786;2023-08-30T15:00:30;14.80;99.90
26378;DHT22;14078;50.974;6.786;2023-08-30T15:02:57;15.00;99.90
26378;DHT22;14078;50.974;6.786;2023-08-30T15:05:24;15.10;99.90
26378;DHT22;14078;50.974;6.786;2023-08-30T15:07:50;15.30;99.90
26378;DHT22;14078;50.974;6.786;2023-08-30T15:10:18;15.70;99.90
26378;DHT22;14078;50.974;6.786;2023-08-30T15:12:45;16.20;99.90
26378;DHT22;14078;50.974;6.786;2023-08-30T15:15:11;16.60;99.90
26378;DHT22;14078;50.974;6.786;2023-08-30T15:17:38;17.30;99.90
26378;DHT22;14078;50.974;6.786;2023-08-30T15:20:05;17.90;99.90
26378;DHT22;14078;50.974;6.786;2023-08-30T15:22:32;18.40;99.90
26378;DHT22;14078;50.974;6.786;2023-08-30T15:24:59;18.80;99.90
26378;DHT22;14078;50.974;6.786;2023-08-30T15:27:28;19.30;99.90
26378;DHT22;14078;50.974;6.786;2023-08-30T15:29:55;19.80;99.90
26378;DHT22;14078;50.974;6.786;2023-08-30T15:32:21;19.70;99.90
26378;DHT22;14078;50.974;6.786;2023-08-30T15:34:49;19.40;99.90